Terminal Aerodrome Forecast
Issued by NWS Mobile, AL

Home | Current Version | Previous Version | Text Only | Print | Product List | Glossary On
Versions: 1 2 3 4 5 6 7 8 9 10 11 12 13 14 15 16 17 18
000
FTUS44 KMOB 241513 AAC
TAFPNS
TAF AMD
KPNS 241513Z 2415/2512 10003KT 5SM BR SCT002
     FM241600 15007KT P6SM BKN030
     FM242100 17007KT P6SM BKN050
     FM250300 18007KT 1 1/2SM BR OVC004
      TEMPO 2506/2510 2SM SHRA=

USA.gov is the U.S. government's official web portal to all federal, state and local government web resources and services.